首页
METAR-TAF:

METAR-TAF

机场 :

Port Hardy, 不列颠哥伦比亚, 加拿大

纬度: 50-41N, 经度: 127-22W, 海拔: 22米

当前天气观测

该预报发布于22分钟前的00:00 UTC
风速5节,风向,在西北北转东北之间变化
温度 8°C
湿度 81%
气压 1025 hPa
能見度: 24.1公里
少量云层高于2200英尺
多云层高于3500英尺
多云层高于4500英尺
多云层高于7500英尺
小阵雨

METAR: CYZT 080000Z 01005KT 310V030 15SM -SHRA FEW022 BKN035 BKN045 BKN075 08/05 A3027 RMK CU2CU3SC1AC1 SLP251

时间: 17:22 (00:22 UTC)

预报

该预报发布于5小时和44分钟前的18:38 UTC
预报有效从07日的 19点(UTC)到 08日的 07点(UTC)
风速3节,风向多变
能見度: 10公里
散云层高于1200英尺
多云层高于4000英尺
短暂存在
从 07日的 19点(UTC)到 07日的 24点(UTC)
能見度: 8.0公里
多云层高于1200英尺
阴天层高于3000英尺
小阵雨, 轻雾
从 08日的 0000点(UTC)
风速6节,风向西
能見度: 10公里
多云层高于4000英尺
短暂存在
从 08日的 00点(UTC)到 08日的 03点(UTC)
能見度: 10公里
小阵雨
从 08日的 0300点(UTC)
风速3节,风向多变
能見度: 10公里
散云层高于4000英尺

TAF: CYZT 071838Z 0719/0807 VRB03KT P6SM SCT012 BKN040 TEMPO 0719/0724 5SM -SHRA BR BKN012 OVC030 FM080000 27006KT P6SM BKN040 TEMPO 0800/0803 P6SM -SHRA FM080300 VRB03KT P6SM SCT040 RMK NXT FCST BY 080100Z

超过4000个机场的气象观测和天气预报(METAR&TAF报告)。

可查询的气象台以黄色和红色小点在地图上表示。

将鼠标移到小点上方,可查看气象台名称。

然后点击查看天气观测和预报。

如需切换地图:点击带黑十字的绿色按钮放大地图;点击带横线的绿色按钮缩小地图;或者点击绿色箭头查看邻近地区的地图。


METAR-TAF: